createdAt,value
2019-04-29T00:02:08.492Z,13.20
2019-04-29T00:04:37.253Z,11.37
2019-04-29T00:07:05.992Z,11.80
2019-04-29T00:09:34.750Z,12.30
2019-04-29T00:12:03.618Z,13.07
2019-04-29T00:14:34.201Z,13.30
2019-04-29T00:17:04.684Z,13.37
2019-04-29T00:19:36.258Z,13.10
2019-04-29T00:22:05.292Z,12.23
2019-04-29T00:24:33.891Z,12.80
2019-04-29T00:27:02.510Z,13.90
2019-04-29T00:29:31.182Z,15.07
2019-04-29T00:31:59.801Z,12.90
2019-04-29T00:34:28.418Z,14.67
2019-04-29T00:36:58.892Z,15.00
2019-04-29T00:39:46.297Z,12.20
2019-04-29T00:42:32.685Z,15.23
2019-04-29T00:45:01.429Z,14.33
2019-04-29T00:47:30.124Z,12.83
2019-04-29T00:49:59.325Z,13.80
2019-04-29T00:52:28.024Z,13.20
2019-04-29T00:54:58.317Z,13.77
2019-04-29T00:57:28.297Z,13.70
2019-04-29T00:59:57.487Z,13.00
2019-04-29T01:02:27.354Z,14.27
2019-04-29T01:04:56.926Z,12.35
2019-04-29T01:07:26.033Z,13.23
2019-04-29T01:09:54.805Z,13.53
2019-04-29T01:12:23.402Z,14.30
2019-04-29T01:14:52.137Z,13.33
2019-04-29T01:17:20.870Z,13.60
2019-04-29T01:19:49.382Z,12.97
2019-04-29T01:22:18.616Z,13.53
2019-04-29T01:24:47.214Z,13.90
2019-04-29T01:27:17.469Z,12.40
2019-04-29T01:29:46.019Z,13.90
2019-04-29T01:32:15.221Z,13.37
2019-04-29T01:34:45.460Z,13.93
2019-04-29T01:37:14.082Z,14.70
2019-04-29T01:39:44.256Z,14.50
2019-04-29T01:42:26.170Z,13.85
2019-04-29T01:44:54.909Z,12.50
2019-04-29T01:47:24.084Z,13.60
2019-04-29T01:49:52.705Z,13.60
2019-04-29T01:52:21.536Z,13.63
2019-04-29T01:54:50.222Z,14.93
2019-04-29T01:57:19.450Z,14.20
2019-04-29T01:59:48.079Z,18.30
2019-04-29T02:02:16.766Z,14.30
2019-04-29T02:04:45.368Z,14.40
2019-04-29T02:07:14.192Z,16.00
2019-04-29T02:09:45.018Z,13.97
2019-04-29T02:12:13.542Z,13.87
2019-04-29T02:14:42.164Z,16.70
2019-04-29T02:17:10.916Z,15.50
2019-04-29T02:19:39.459Z,15.95
2019-04-29T02:22:12.555Z,15.60
2019-04-29T02:24:45.870Z,14.65
2019-04-29T02:27:14.390Z,15.30
2019-04-29T02:29:43.304Z,15.60
2019-04-29T02:32:12.158Z,14.30
2019-04-29T02:34:40.960Z,16.40
2019-04-29T02:37:11.290Z,16.20
2019-04-29T02:39:44.372Z,15.90
2019-04-29T02:42:31.591Z,16.80
2019-04-29T02:45:01.885Z,16.60
2019-04-29T02:47:30.553Z,15.95
2019-04-29T02:49:59.152Z,17.75
2019-04-29T02:54:57.464Z,17.30
2019-04-29T02:57:33.624Z,17.05
2019-04-29T03:00:04.026Z,16.60
2019-04-29T03:02:46.012Z,17.60
2019-04-29T03:05:22.038Z,16.67
2019-04-29T03:07:50.977Z,18.73
2019-04-29T03:10:19.738Z,18.45
2019-04-29T03:12:48.513Z,17.33
2019-04-29T03:15:28.645Z,18.10
2019-04-29T03:17:57.736Z,18.60
2019-04-29T03:23:15.901Z,20.15
2019-04-29T03:25:44.571Z,19.50
2019-04-29T03:28:13.315Z,25.63
2019-04-29T03:30:41.993Z,21.90
2019-04-29T03:33:10.683Z,22.67
2019-04-29T03:35:39.844Z,22.07
2019-04-29T03:38:08.665Z,21.70
2019-04-29T03:40:37.263Z,22.00
2019-04-29T03:43:05.939Z,24.27
2019-04-29T03:45:34.505Z,24.10
2019-04-29T03:48:03.284Z,24.10
2019-04-29T03:50:32.510Z,25.10
2019-04-29T03:53:01.358Z,26.87
2019-04-29T03:55:39.195Z,25.40
2019-04-29T03:58:00.795Z,26.93
2019-04-29T04:00:29.474Z,29.13
2019-04-29T04:03:02.641Z,26.20
2019-04-29T04:05:51.206Z,31.07
2019-04-29T04:08:37.790Z,28.67
2019-04-29T04:11:06.558Z,30.03
2019-04-29T04:13:35.221Z,29.00
2019-04-29T04:16:04.724Z,30.50
2019-04-29T04:18:35.987Z,32.17
2019-04-29T04:21:04.640Z,31.97
2019-04-29T04:23:33.403Z,33.20
2019-04-29T04:26:02.025Z,30.60
2019-04-29T04:28:30.620Z,28.50
2019-04-29T04:30:59.235Z,28.60
2019-04-29T04:33:27.967Z,31.33
2019-04-29T04:35:56.486Z,28.67
2019-04-29T04:38:25.773Z,29.00
2019-04-29T04:40:59.201Z,24.90
2019-04-29T04:45:55.708Z,23.73
2019-04-29T04:48:24.446Z,24.87
2019-04-29T04:50:53.837Z,23.20
2019-04-29T04:53:22.605Z,23.97
2019-04-29T04:55:53.083Z,23.03
2019-04-29T05:00:49.824Z,23.10
2019-04-29T05:03:18.498Z,23.83
2019-04-29T05:05:47.375Z,21.03
2019-04-29T05:08:16.036Z,23.40
2019-04-29T05:10:44.760Z,22.23
2019-04-29T05:13:26.982Z,22.93
2019-04-29T05:15:43.759Z,22.47
2019-04-29T05:18:12.467Z,23.53
2019-04-29T05:20:41.659Z,22.33
2019-04-29T05:23:10.350Z,22.77
2019-04-29T05:25:38.951Z,22.07
2019-04-29T05:28:07.770Z,21.77
2019-04-29T05:30:37.215Z,22.17
2019-04-29T05:33:05.875Z,23.07
2019-04-29T05:35:40.042Z,21.50
2019-04-29T05:38:09.319Z,22.67
2019-04-29T05:40:45.688Z,22.37
2019-04-29T05:43:16.940Z,21.97
2019-04-29T05:45:53.341Z,22.20
2019-04-29T05:48:22.173Z,22.80
2019-04-29T05:51:01.109Z,19.83
2019-04-29T05:53:31.344Z,20.80
2019-04-29T05:56:00.034Z,21.87
2019-04-29T05:58:33.010Z,20.23
2019-04-29T06:01:01.787Z,22.17
2019-04-29T06:03:33.618Z,18.43
2019-04-29T06:06:02.222Z,19.73
2019-04-29T06:08:34.585Z,17.90
2019-04-29T06:11:02.925Z,18.20
2019-04-29T06:13:32.409Z,17.77
2019-04-29T06:16:01.157Z,17.93
2019-04-29T06:18:29.699Z,16.17
2019-04-29T06:21:08.701Z,17.97
2019-04-29T06:23:29.077Z,16.40
2019-04-29T06:25:57.831Z,16.17
2019-04-29T06:28:28.139Z,15.50
2019-04-29T06:30:56.946Z,15.93
2019-04-29T06:33:28.978Z,15.93
2019-04-29T06:35:57.324Z,18.10
2019-04-29T06:38:26.122Z,16.50
2019-04-29T06:40:55.255Z,17.30
2019-04-29T06:43:24.643Z,14.40
2019-04-29T06:45:54.805Z,17.20
2019-04-29T06:48:23.511Z,17.00
2019-04-29T06:50:52.241Z,16.40
2019-04-29T06:53:21.714Z,15.47
2019-04-29T06:55:51.354Z,16.00
2019-04-29T06:58:20.114Z,16.93
2019-04-29T07:00:50.844Z,18.70
2019-04-29T07:03:21.031Z,17.33
2019-04-29T07:05:51.553Z,15.77
2019-04-29T07:08:22.785Z,15.60
2019-04-29T07:10:51.373Z,17.15
2019-04-29T07:13:22.928Z,16.90
2019-04-29T07:15:50.433Z,14.40
2019-04-29T07:18:19.277Z,15.80
2019-04-29T07:20:48.047Z,15.60
2019-04-29T07:23:16.861Z,22.80
2019-04-29T07:25:45.660Z,20.13
2019-04-29T07:28:18.347Z,16.57
2019-04-29T07:31:00.663Z,16.37
2019-04-29T07:33:21.772Z,17.63
2019-04-29T07:35:47.945Z,16.60
2019-04-29T07:38:16.059Z,20.67
2019-04-29T07:40:45.310Z,19.00
2019-04-29T07:43:13.919Z,19.10
2019-04-29T07:45:46.933Z,17.60
2019-04-29T07:48:16.222Z,18.97
2019-04-29T07:50:44.902Z,19.73
2019-04-29T07:53:13.617Z,21.93
2019-04-29T07:55:42.288Z,19.80
2019-04-29T07:58:10.919Z,20.60
2019-04-29T08:00:40.395Z,20.03
2019-04-29T08:03:09.320Z,21.90
2019-04-29T08:05:37.963Z,21.13
2019-04-29T08:08:06.561Z,21.37
2019-04-29T08:10:35.301Z,23.03
2019-04-29T08:13:04.343Z,20.80
2019-04-29T08:15:36.805Z,22.70
2019-04-29T08:18:06.577Z,19.90
2019-04-29T08:20:35.482Z,20.87
2019-04-29T08:23:04.585Z,21.47
2019-04-29T08:25:33.920Z,21.10
2019-04-29T08:28:02.666Z,21.43
2019-04-29T08:30:31.279Z,17.07
2019-04-29T08:32:59.883Z,20.23
2019-04-29T08:35:28.578Z,20.50
2019-04-29T08:37:57.287Z,20.23
2019-04-29T08:40:26.058Z,20.50
2019-04-29T08:43:15.847Z,18.60
2019-04-29T08:46:00.638Z,20.60
2019-04-29T08:48:29.289Z,20.10
2019-04-29T08:50:57.962Z,19.70
2019-04-29T08:53:27.032Z,19.57
2019-04-29T08:55:55.551Z,17.33
2019-04-29T08:58:24.085Z,17.20
2019-04-29T09:00:55.864Z,15.87
2019-04-29T09:03:24.302Z,17.47
2019-04-29T09:06:05.016Z,17.70
2019-04-29T09:08:23.386Z,19.10
2019-04-29T09:10:52.552Z,16.63
2019-04-29T09:13:21.078Z,14.00
2019-04-29T09:15:49.755Z,16.50
2019-04-29T09:18:18.467Z,14.63
2019-04-29T09:20:47.964Z,14.87
2019-04-29T09:23:23.966Z,13.70
2019-04-29T09:26:02.807Z,13.73
2019-04-29T09:28:30.691Z,15.93
2019-04-29T09:30:59.381Z,13.43
2019-04-29T09:33:28.072Z,14.20
2019-04-29T09:35:56.693Z,15.93
2019-04-29T09:38:25.322Z,15.20
2019-04-29T09:40:59.641Z,14.97
2019-04-29T09:43:33.515Z,11.60
2019-04-29T09:46:04.347Z,14.33
2019-04-29T09:48:32.973Z,13.70
2019-04-29T09:51:01.737Z,11.60
2019-04-29T09:53:30.456Z,13.20
2019-04-29T09:55:59.151Z,15.70
2019-04-29T09:58:28.102Z,13.50
2019-04-29T10:01:13.935Z,21.93
2019-04-29T10:03:59.660Z,17.03
2019-04-29T10:06:29.906Z,14.87
2019-04-29T10:08:58.614Z,16.73
2019-04-29T10:11:27.429Z,14.80
2019-04-29T10:13:56.064Z,15.87
2019-04-29T10:16:42.337Z,20.87
2019-04-29T10:19:24.468Z,15.90
2019-04-29T10:21:53.149Z,16.60
2019-04-29T10:24:22.326Z,21.77
2019-04-29T10:26:51.113Z,18.70
2019-04-29T10:29:21.659Z,17.40
2019-04-29T10:31:50.277Z,18.37
2019-04-29T10:34:18.991Z,15.97
2019-04-29T10:36:52.057Z,17.60
2019-04-29T10:39:24.251Z,16.00
2019-04-29T10:41:53.751Z,14.80
2019-04-29T10:44:37.469Z,17.30
2019-04-29T10:47:28.737Z,14.90
2019-04-29T10:49:58.976Z,21.10
2019-04-29T10:52:27.752Z,21.37
2019-04-29T10:54:56.740Z,17.67
2019-04-29T10:57:25.617Z,14.97
2019-04-29T10:59:55.791Z,12.93
2019-04-29T11:02:29.328Z,12.83
2019-04-29T11:05:02.585Z,12.53
2019-04-29T11:07:32.076Z,12.33
2019-04-29T11:10:02.464Z,13.97
2019-04-29T11:12:31.364Z,13.33
2019-04-29T11:15:01.830Z,11.30
2019-04-29T11:17:30.403Z,11.80
2019-04-29T11:19:59.532Z,12.03
2019-04-29T11:22:34.015Z,11.93
2019-04-29T11:25:16.890Z,11.60
2019-04-29T11:27:55.984Z,11.27
2019-04-29T11:30:24.895Z,10.53
2019-04-29T11:33:10.220Z,10.87
2019-04-29T11:35:43.590Z,9.27
2019-04-29T11:38:12.963Z,8.20
2019-04-29T11:40:43.939Z,8.83
2019-04-29T11:43:15.701Z,7.30
2019-04-29T11:45:43.462Z,8.13
2019-04-29T11:48:12.148Z,8.67
2019-04-29T11:50:58.612Z,8.50
2019-04-29T11:53:27.461Z,7.77
2019-04-29T11:55:56.980Z,8.60
2019-04-29T11:58:44.086Z,8.73
2019-04-29T12:01:38.321Z,9.03
2019-04-29T12:04:17.986Z,9.17
2019-04-29T12:06:51.323Z,9.43
2019-04-29T12:09:17.568Z,11.27
2019-04-29T12:11:46.766Z,10.83
2019-04-29T12:14:22.696Z,9.40
2019-04-29T12:17:09.245Z,10.40
2019-04-29T12:19:48.297Z,12.53
2019-04-29T12:22:28.216Z,11.50
2019-04-29T12:24:47.378Z,12.40
2019-04-29T12:27:19.930Z,11.50
2019-04-29T12:29:48.851Z,12.77
2019-04-29T12:32:29.302Z,11.60
2019-04-29T12:34:59.540Z,13.50
2019-04-29T12:37:38.692Z,14.00
2019-04-29T12:40:16.248Z,13.30
2019-04-29T12:43:04.768Z,14.07
2019-04-29T12:45:37.968Z,14.90
2019-04-29T12:48:06.749Z,16.00
2019-04-29T12:50:35.645Z,19.67
2019-04-29T12:53:04.695Z,16.37
2019-04-29T12:55:45.081Z,16.73
2019-04-29T12:58:07.752Z,19.17
2019-04-29T13:00:47.330Z,18.57
2019-04-29T13:03:09.698Z,18.50
2019-04-29T13:05:57.619Z,19.77
2019-04-29T13:08:17.672Z,15.57
2019-04-29T13:10:48.029Z,14.83
2019-04-29T13:13:20.162Z,16.00
2019-04-29T13:15:49.691Z,15.00
2019-04-29T13:18:25.560Z,16.23
2019-04-29T13:20:54.188Z,14.47
2019-04-29T13:23:33.155Z,15.83
2019-04-29T13:25:55.953Z,14.57
2019-04-29T13:28:30.179Z,14.10
2019-04-29T13:30:56.843Z,13.00
2019-04-29T13:33:24.470Z,12.50
2019-04-29T13:35:54.350Z,11.57
2019-04-29T13:38:22.891Z,11.30
2019-04-29T13:41:11.443Z,10.47
2019-04-29T13:43:25.901Z,10.77
2019-04-29T13:46:09.057Z,9.70
2019-04-29T13:48:55.426Z,10.67
2019-04-29T13:51:35.869Z,8.53
2019-04-29T13:53:59.850Z,8.27
2019-04-29T13:56:54.183Z,8.03
2019-04-29T13:59:09.632Z,7.70
2019-04-29T14:01:39.750Z,7.63
2019-04-29T14:04:12.217Z,8.20
2019-04-29T14:06:55.837Z,7.67
2019-04-29T14:09:13.050Z,7.00
2019-04-29T14:11:41.668Z,6.77
2019-04-29T14:14:10.256Z,5.70
2019-04-29T14:16:43.013Z,6.47
2019-04-29T14:19:09.328Z,6.07
2019-04-29T14:21:39.414Z,5.83
2019-04-29T14:24:08.149Z,5.47
2019-04-29T14:26:41.741Z,5.40
2019-04-29T14:29:07.165Z,5.47
2019-04-29T14:31:35.799Z,5.77
2019-04-29T14:34:06.242Z,4.80
2019-04-29T14:36:35.106Z,4.70
2019-04-29T14:40:55.839Z,5.47
2019-04-29T14:43:44.082Z,5.27
2019-04-29T14:46:16.204Z,5.83
2019-04-29T14:48:54.182Z,4.57
2019-04-29T14:51:22.860Z,4.80
2019-04-29T14:53:56.756Z,3.90
2019-04-29T14:56:22.088Z,4.53
2019-04-29T14:58:51.014Z,3.97
2019-04-29T15:01:27.331Z,4.57
2019-04-29T15:04:17.241Z,4.67
2019-04-29T15:06:34.241Z,4.93
2019-04-29T15:09:03.335Z,3.70
2019-04-29T15:11:34.332Z,3.50
2019-04-29T15:14:04.906Z,3.87
2019-04-29T15:16:44.242Z,3.87
2019-04-29T15:19:31.393Z,3.80
2019-04-29T15:22:01.855Z,3.73
2019-04-29T15:24:32.451Z,3.33
2019-04-29T15:27:03.797Z,3.43
2019-04-29T15:29:33.568Z,3.50
2019-04-29T15:32:03.104Z,3.60
2019-04-29T15:34:32.476Z,3.10
2019-04-29T15:37:01.218Z,3.70
2019-04-29T15:39:30.154Z,2.93
2019-04-29T15:42:01.698Z,3.27
2019-04-29T15:44:30.308Z,3.30
2019-04-29T15:47:00.571Z,3.33
2019-04-29T15:49:29.460Z,3.00
2019-04-29T15:51:58.769Z,3.63
2019-04-29T15:54:27.370Z,3.57
2019-04-29T15:56:56.135Z,3.10
2019-04-29T15:59:25.047Z,2.80
2019-04-29T16:01:53.861Z,2.97
2019-04-29T16:04:33.639Z,2.50
2019-04-29T16:07:22.677Z,3.70
2019-04-29T16:09:59.393Z,2.90
2019-04-29T16:12:38.707Z,3.37
2019-04-29T16:15:07.778Z,2.90
2019-04-29T16:17:37.994Z,3.47
2019-04-29T16:20:09.407Z,3.10
2019-04-29T16:22:40.118Z,3.30
2019-04-29T16:25:10.911Z,3.07
2019-04-29T16:27:41.006Z,3.30
2019-04-29T16:30:11.410Z,3.63
2019-04-29T16:32:43.965Z,3.83
2019-04-29T16:38:05.815Z,4.30
2019-04-29T16:40:39.261Z,4.40
2019-04-29T16:43:12.228Z,4.53
2019-04-29T16:45:51.682Z,5.80
2019-04-29T16:48:15.990Z,6.93
2019-04-29T16:50:45.217Z,7.43
2019-04-29T16:53:14.526Z,9.33
2019-04-29T16:55:44.356Z,10.13
2019-04-29T16:58:18.246Z,9.50
2019-04-29T17:00:46.747Z,10.53
2019-04-29T17:03:14.688Z,10.33
2019-04-29T17:05:43.386Z,11.63
2019-04-29T17:10:54.093Z,12.70
2019-04-29T17:13:24.009Z,13.73
2019-04-29T17:15:53.892Z,14.20
2019-04-29T17:18:22.561Z,15.40
2019-04-29T17:20:54.103Z,15.27
2019-04-29T17:23:24.325Z,15.27
2019-04-29T17:25:53.176Z,17.00
2019-04-29T17:28:28.973Z,16.93
2019-04-29T17:30:58.628Z,16.57
2019-04-29T17:33:30.523Z,16.77
2019-04-29T17:35:16.116Z,12.40
2019-04-29T17:35:59.681Z,18.87
2019-04-29T17:38:28.244Z,19.70
2019-04-29T17:40:56.923Z,21.27
2019-04-29T17:43:38.302Z,22.30
2019-04-29T17:46:09.084Z,20.80
2019-04-29T17:48:42.671Z,21.27
2019-04-29T17:51:14.611Z,23.13
2019-04-29T17:53:48.216Z,22.60
2019-04-29T17:56:35.073Z,23.17
2019-04-29T17:59:29.625Z,24.50
2019-04-29T18:02:18.366Z,20.47
2019-04-29T18:05:01.180Z,25.37
2019-04-29T18:07:31.541Z,25.03
2019-04-29T18:10:24.088Z,26.37
2019-04-29T18:12:49.406Z,27.47
2019-04-29T18:15:20.234Z,27.23
2019-04-29T18:17:49.188Z,28.10
2019-04-29T18:20:30.799Z,31.60
2019-04-29T18:22:54.861Z,31.00
2019-04-29T18:25:31.185Z,31.20
2019-04-29T18:28:00.263Z,34.63
2019-04-29T18:30:35.911Z,32.30
2019-04-29T18:33:00.443Z,33.37
2019-04-29T18:35:29.248Z,34.63
2019-04-29T18:37:57.886Z,34.20
2019-04-29T18:40:30.052Z,33.33
2019-04-29T18:42:58.406Z,33.03
2019-04-29T18:45:30.032Z,33.50
2019-04-29T18:47:58.886Z,35.30
2019-04-29T18:50:29.614Z,37.57
2019-04-29T18:52:57.978Z,36.37
2019-04-29T18:55:28.171Z,40.23
2019-04-29T18:57:58.456Z,40.03
2019-04-29T19:00:27.369Z,41.23
2019-04-29T19:02:58.487Z,42.00
2019-04-29T19:05:39.931Z,39.37
2019-04-29T19:08:19.139Z,41.00
2019-04-29T19:10:46.159Z,41.47
2019-04-29T19:13:16.685Z,43.13
2019-04-29T19:15:48.662Z,44.47
2019-04-29T19:18:21.007Z,43.47
2019-04-29T19:20:52.935Z,46.03
2019-04-29T19:23:24.973Z,47.70
2019-04-29T19:25:54.339Z,49.13
2019-04-29T19:28:32.333Z,43.93
2019-04-29T19:31:09.388Z,43.93
2019-04-29T19:33:39.296Z,45.80
2019-04-29T19:36:17.072Z,48.87
2019-04-29T19:38:47.194Z,47.70
2019-04-29T19:41:16.477Z,44.73
2019-04-29T19:43:48.325Z,42.70
2019-04-29T19:46:24.086Z,40.10
2019-04-29T19:48:49.781Z,41.57
2019-04-29T19:51:20.903Z,39.13
2019-04-29T19:53:49.684Z,41.47
2019-04-29T19:56:23.094Z,39.50
2019-04-29T19:58:49.978Z,34.93
2019-04-29T20:01:27.138Z,35.87
2019-04-29T20:03:51.770Z,35.97
2019-04-29T20:06:25.764Z,34.33
2019-04-29T20:08:56.830Z,30.50
2019-04-29T20:11:31.855Z,31.93
2019-04-29T20:14:05.759Z,28.47
2019-04-29T20:16:42.935Z,26.83
2019-04-29T20:19:12.066Z,23.63
2019-04-29T20:21:38.000Z,25.33
2019-04-29T20:24:09.395Z,23.67
2019-04-29T20:26:44.856Z,23.37
2019-04-29T20:29:19.806Z,23.70
2019-04-29T20:31:53.900Z,24.50
2019-04-29T20:34:28.096Z,24.53
2019-04-29T20:36:59.006Z,25.73
2019-04-29T20:39:35.443Z,29.27
2019-04-29T20:42:10.280Z,30.07
2019-04-29T20:44:44.779Z,32.30
2019-04-29T20:47:19.613Z,32.17
2019-04-29T20:49:40.980Z,36.00
2019-04-29T20:52:31.666Z,34.87
2019-04-29T20:55:02.666Z,36.90
2019-04-29T20:57:32.002Z,38.37
2019-04-29T21:00:01.334Z,38.60
2019-04-29T21:02:34.781Z,39.67
2019-04-29T21:05:01.483Z,42.00
2019-04-29T21:07:30.476Z,35.90
2019-04-29T21:10:00.019Z,38.03
2019-04-29T21:12:38.145Z,33.97
2019-04-29T21:15:14.990Z,36.63
2019-04-29T21:17:41.585Z,32.60
2019-04-29T21:20:10.396Z,30.20
2019-04-29T21:22:39.130Z,26.57
2019-04-29T21:25:08.580Z,31.20
2019-04-29T21:27:37.189Z,33.43
2019-04-29T21:30:07.473Z,23.17
2019-04-29T21:32:38.922Z,35.93
2019-04-29T21:35:17.191Z,38.90
2019-04-29T21:37:46.680Z,41.87
2019-04-29T21:40:19.017Z,44.60
2019-04-29T21:42:55.929Z,42.87
2019-04-29T21:45:25.666Z,43.67
2019-04-29T21:47:54.645Z,43.93
2019-04-29T21:50:27.193Z,45.00
2019-04-29T21:52:55.412Z,43.73
2019-04-29T21:55:25.824Z,43.70
2019-04-29T21:57:54.589Z,48.20
2019-04-29T22:00:26.650Z,48.70
2019-04-29T22:02:55.469Z,47.03
2019-04-29T22:05:25.108Z,47.03
2019-04-29T22:07:54.218Z,43.90
2019-04-29T22:10:25.228Z,45.23
2019-04-29T22:12:58.456Z,44.77
2019-04-29T22:15:32.366Z,37.17
2019-04-29T22:17:58.625Z,46.77
2019-04-29T22:20:25.894Z,46.83
2019-04-29T22:22:55.927Z,47.47
2019-04-29T22:25:25.729Z,38.97
2019-04-29T22:27:55.402Z,42.90
2019-04-29T22:30:26.505Z,43.33
2019-04-29T22:32:58.052Z,43.80
2019-04-29T22:35:27.774Z,45.50
2019-04-29T22:37:56.119Z,45.00
2019-04-29T22:40:25.310Z,42.30
2019-04-29T22:43:05.133Z,42.13
2019-04-29T22:45:33.963Z,41.63
2019-04-29T22:48:14.361Z,42.57
2019-04-29T22:50:33.671Z,39.47
2019-04-29T22:53:01.200Z,41.17
2019-04-29T22:55:35.730Z,42.87
2019-04-29T22:58:08.229Z,39.33
2019-04-29T23:00:33.825Z,41.07
2019-04-29T23:03:03.533Z,27.90
2019-04-29T23:05:32.341Z,41.93
2019-04-29T23:08:01.099Z,42.07
2019-04-29T23:10:29.855Z,41.43
2019-04-29T23:12:58.470Z,39.43
2019-04-29T23:15:27.189Z,37.80
2019-04-29T23:17:55.902Z,35.83
2019-04-29T23:20:38.224Z,34.93
2019-04-29T23:23:10.983Z,38.40
2019-04-29T23:25:41.183Z,38.20
2019-04-29T23:28:09.709Z,35.90
2019-04-29T23:30:38.977Z,39.37
2019-04-29T23:33:07.638Z,35.20
2019-04-29T23:35:39.755Z,34.37
2019-04-29T23:38:09.339Z,37.57
2019-04-29T23:40:37.217Z,35.67
2019-04-29T23:43:06.232Z,37.70
2019-04-29T23:45:35.177Z,34.97
2019-04-29T23:48:05.674Z,32.97
2019-04-29T23:50:35.909Z,34.27
2019-04-29T23:53:05.765Z,33.50
2019-04-29T23:55:35.555Z,33.07
2019-04-29T23:58:18.067Z,35.57
